createdAt,value
2023-01-20T00:00:03.913Z,94686
2023-01-20T00:01:06.412Z,94684.4
2023-01-20T00:02:08.673Z,94683.6
2023-01-20T00:03:11.356Z,94684.1
2023-01-20T00:04:13.901Z,94685.9
2023-01-20T00:05:17.261Z,94684
2023-01-20T00:06:19.782Z,94679.9
2023-01-20T00:07:21.728Z,94679.8
2023-01-20T00:08:24.278Z,94685
2023-01-20T00:09:26.504Z,94683.7
2023-01-20T00:10:29.048Z,94680.3
2023-01-20T00:11:31.563Z,94684.5
2023-01-20T00:12:34.088Z,94686.3
2023-01-20T00:13:36.721Z,94686.2
2023-01-20T00:14:39.014Z,94686.9
2023-01-20T00:15:41.778Z,94689.5
2023-01-20T00:16:44.090Z,94693.3
2023-01-20T00:17:46.655Z,94688.9
2023-01-20T00:18:49.281Z,94691.4
2023-01-20T00:19:52.021Z,94693.4
2023-01-20T00:20:54.619Z,94691
2023-01-20T00:21:56.872Z,94690
2023-01-20T00:22:59.396Z,94697
2023-01-20T00:24:01.909Z,94695.1
2023-01-20T00:25:04.216Z,94694.6
2023-01-20T00:26:06.487Z,94695.4
2023-01-20T00:27:08.715Z,94697.1
2023-01-20T00:28:10.952Z,94696.3
2023-01-20T00:29:12.939Z,94697.8
2023-01-20T00:30:15.515Z,94700.4
2023-01-20T00:31:18.370Z,94696.8
2023-01-20T00:32:21.068Z,94695.1
2023-01-20T00:33:23.343Z,94697.6
2023-01-20T00:34:25.886Z,94700.2
2023-01-20T00:35:28.150Z,94700.9
2023-01-20T00:36:30.663Z,94699.6
2023-01-20T00:37:33.274Z,94697
2023-01-20T00:38:35.776Z,94706.9
2023-01-20T00:39:37.702Z,94699
2023-01-20T00:40:39.653Z,94708.4
2023-01-20T00:41:42.178Z,94702.8
2023-01-20T00:42:44.429Z,94703.1
2023-01-20T00:43:46.436Z,94705.3
2023-01-20T00:44:48.692Z,94702.7
2023-01-20T00:45:51.186Z,94700.1
2023-01-20T00:46:53.429Z,94703.9
2023-01-20T00:47:56.056Z,94702.9
2023-01-20T00:48:58.624Z,94703.1
2023-01-20T00:50:00.664Z,94704.3
2023-01-20T00:51:03.221Z,94705.4
2023-01-20T00:52:05.452Z,94706.9
2023-01-20T00:53:07.952Z,94710.6
2023-01-20T00:54:10.466Z,94705.3
2023-01-20T00:55:14.335Z,94711.2
2023-01-20T00:56:17.399Z,94704.5
2023-01-20T00:57:19.926Z,94714.7
2023-01-20T00:58:22.428Z,94708.1
2023-01-20T00:59:24.940Z,94709.9
2023-01-20T01:00:27.580Z,94712.3
2023-01-20T01:01:29.783Z,94711.6
2023-01-20T01:02:32.696Z,94712.8
2023-01-20T01:03:35.295Z,94712.3
2023-01-20T01:04:37.831Z,94713.9
2023-01-20T01:05:40.389Z,94715.3
2023-01-20T01:06:42.630Z,94713.1
2023-01-20T01:07:45.144Z,94712.6
2023-01-20T01:08:47.658Z,94713.8
2023-01-20T01:09:49.884Z,94717.7
2023-01-20T01:10:52.367Z,94714.8
2023-01-20T01:11:54.581Z,94715.5
2023-01-20T01:12:57.109Z,94717.5
2023-01-20T01:13:59.644Z,94718.7
2023-01-20T01:15:01.888Z,94719.6
2023-01-20T01:16:04.552Z,94721.7
2023-01-20T01:17:06.878Z,94728
2023-01-20T01:18:08.827Z,94721.6
2023-01-20T01:19:11.056Z,94721.7
2023-01-20T01:20:13.383Z,94727
2023-01-20T01:21:15.669Z,94726.1
2023-01-20T01:22:18.191Z,94723.3
2023-01-20T01:23:20.705Z,94720.9
2023-01-20T01:24:22.935Z,94722.3
2023-01-20T01:25:25.149Z,94722.1
2023-01-20T01:26:26.815Z,94722.3
2023-01-20T01:27:28.487Z,94721
2023-01-20T01:28:31.043Z,94721.2
2023-01-20T01:29:32.997Z,94725.1
2023-01-20T01:30:35.704Z,94727.9
2023-01-20T01:31:38.026Z,94726.2
2023-01-20T01:32:40.591Z,94730.8
2023-01-20T01:33:42.816Z,94728.7
2023-01-20T01:34:45.348Z,94731.3
2023-01-20T01:35:47.874Z,94734.2
2023-01-20T01:36:50.423Z,94738.2
2023-01-20T01:37:52.961Z,94738
2023-01-20T01:40:00.183Z,94732
2023-01-20T01:41:02.742Z,94734.2
2023-01-20T01:42:04.990Z,94740.9
2023-01-20T01:43:07.229Z,94740
2023-01-20T01:44:09.754Z,94737
2023-01-20T01:45:14.484Z,94739.6
2023-01-20T01:46:17.555Z,94742.3
2023-01-20T01:47:19.788Z,94738.5
2023-01-20T01:48:22.306Z,94742.3
2023-01-20T01:49:24.236Z,94742.4
2023-01-20T01:50:26.745Z,94740.2
2023-01-20T01:51:29.288Z,94738.4
2023-01-20T01:52:31.843Z,94742.8
2023-01-20T01:53:34.112Z,94744.8
2023-01-20T01:54:36.320Z,94743.7
2023-01-20T01:55:38.818Z,94733.8
2023-01-20T01:56:41.333Z,94734.9
2023-01-20T01:57:43.842Z,94736.1
2023-01-20T01:58:46.121Z,94730.3
2023-01-20T01:59:48.642Z,94736.1
2023-01-20T02:00:51.065Z,94740.2
2023-01-20T02:01:54.204Z,94740.2
2023-01-20T02:02:56.790Z,94735.6
2023-01-20T02:03:59.011Z,94736.8
2023-01-20T02:05:01.554Z,94742.2
2023-01-20T02:06:04.075Z,94744.4
2023-01-20T02:07:06.337Z,94749.1
2023-01-20T02:08:08.370Z,94741.2
2023-01-20T02:09:10.897Z,94741.4
2023-01-20T02:10:13.375Z,94743.9
2023-01-20T02:11:15.888Z,94744
2023-01-20T02:12:18.140Z,94744.2
2023-01-20T02:13:20.662Z,94745.1
2023-01-20T02:14:22.889Z,94743.4
2023-01-20T02:15:25.416Z,94742.2
2023-01-20T02:16:28.148Z,94744.4
2023-01-20T02:17:30.734Z,94741.8
2023-01-20T02:18:32.988Z,94741.7
2023-01-20T02:19:35.490Z,94738.1
2023-01-20T02:20:38.035Z,94741.7
2023-01-20T02:21:40.245Z,94738.7
2023-01-20T02:22:42.521Z,94740.2
2023-01-20T02:23:45.100Z,94744.1
2023-01-20T02:24:47.629Z,94739.5
2023-01-20T02:25:49.871Z,94741.9
2023-01-20T02:26:52.357Z,94740.4
2023-01-20T02:27:54.591Z,94742
2023-01-20T02:28:56.833Z,94739.5
2023-01-20T02:29:59.107Z,94743.9
2023-01-20T02:31:01.634Z,94741.2
2023-01-20T02:32:04.154Z,94740.2
2023-01-20T02:33:06.645Z,94742.5
2023-01-20T02:34:09.145Z,94746.2
2023-01-20T02:35:11.943Z,94741.7
2023-01-20T02:36:14.741Z,94746.7
2023-01-20T02:37:16.693Z,94747.4
2023-01-20T02:38:18.657Z,94746.4
2023-01-20T02:40:26.176Z,94756.3
2023-01-20T02:41:28.741Z,94752.3
2023-01-20T02:42:31.282Z,94754.5
2023-01-20T02:43:33.836Z,94759
2023-01-20T02:44:36.347Z,94757.9
2023-01-20T02:45:38.960Z,94758.8
2023-01-20T02:46:41.566Z,94757.3
2023-01-20T02:48:48.767Z,94759.6
2023-01-20T02:49:50.724Z,94761.4
2023-01-20T02:50:53.368Z,94759.8
2023-01-20T02:51:55.937Z,94759.1
2023-01-20T02:52:58.219Z,94757.2
2023-01-20T02:54:00.760Z,94761.6
2023-01-20T02:55:03.015Z,94763.9
2023-01-20T02:56:05.284Z,94766.2
2023-01-20T02:57:07.804Z,94766
2023-01-20T02:58:10.047Z,94767.5
2023-01-20T02:59:12.296Z,94763.8
2023-01-20T03:00:14.565Z,94765.8
2023-01-20T03:01:17.319Z,94767.5
2023-01-20T03:02:19.705Z,94769.4
2023-01-20T03:03:22.270Z,94765.3
2023-01-20T03:04:24.771Z,94770.3
2023-01-20T03:05:27.455Z,94771
2023-01-20T03:06:29.720Z,94769.5
2023-01-20T03:07:32.216Z,94769.7
2023-01-20T03:08:34.695Z,94769.2
2023-01-20T03:09:37.317Z,94767.7
2023-01-20T03:10:39.612Z,94770.2
2023-01-20T03:11:41.883Z,94771
2023-01-20T03:12:44.394Z,94774.9
2023-01-20T03:13:46.928Z,94774.7
2023-01-20T03:14:49.440Z,94780.5
2023-01-20T03:15:51.949Z,94776.1
2023-01-20T03:16:54.671Z,94779.2
2023-01-20T03:17:57.098Z,94778.6
2023-01-20T03:18:59.590Z,94780.5
2023-01-20T03:20:01.858Z,94785.2
2023-01-20T03:21:04.213Z,94781.1
2023-01-20T03:22:06.459Z,94785.2
2023-01-20T03:23:08.696Z,94786.9
2023-01-20T03:24:10.934Z,94783.9
2023-01-20T03:25:14.561Z,94785.9
2023-01-20T03:26:17.756Z,94780.9
2023-01-20T03:27:20.307Z,94788.4
2023-01-20T03:28:22.841Z,94783.4
2023-01-20T03:29:25.348Z,94786.8
2023-01-20T03:30:28.024Z,94787.6
2023-01-20T03:31:31.416Z,94785.2
2023-01-20T03:32:33.885Z,94786.3
2023-01-20T03:33:36.397Z,94786.6
2023-01-20T03:34:38.903Z,94788.3
2023-01-20T03:35:41.396Z,94789.2
2023-01-20T03:36:43.637Z,94786.9
2023-01-20T03:37:46.145Z,94790.6
2023-01-20T03:38:48.671Z,94784.4
2023-01-20T03:39:51.176Z,94786.3
2023-01-20T03:40:53.743Z,94788.5
2023-01-20T03:41:56.249Z,94791.9
2023-01-20T03:42:58.793Z,94792.7
2023-01-20T03:44:01.096Z,94790.5
2023-01-20T03:45:03.317Z,94795.7
2023-01-20T03:46:06.132Z,94800.9
2023-01-20T03:47:08.817Z,94798.1
2023-01-20T03:48:11.333Z,94798
2023-01-20T03:49:13.967Z,94800
2023-01-20T03:50:16.508Z,94804.3
2023-01-20T03:51:18.830Z,94806.9
2023-01-20T03:52:21.176Z,94807.4
2023-01-20T03:53:23.437Z,94809.6
2023-01-20T03:54:25.985Z,94809.1
2023-01-20T03:55:28.483Z,94811.9
2023-01-20T03:56:31.035Z,94814.2
2023-01-20T03:57:32.692Z,94811.6
2023-01-20T03:58:35.262Z,94816.2
2023-01-20T03:59:37.527Z,94815.1
2023-01-20T04:00:40.033Z,94816.6
2023-01-20T04:01:43.144Z,94818.6
2023-01-20T04:02:45.847Z,94816.3
2023-01-20T04:03:47.949Z,94815.2
2023-01-20T04:04:50.590Z,94819.1
2023-01-20T04:05:53.110Z,94818.2
2023-01-20T04:06:55.363Z,94818.9
2023-01-20T04:07:57.858Z,94818.8
2023-01-20T04:09:00.165Z,94822.7
2023-01-20T04:10:02.452Z,94818.9
2023-01-20T04:11:04.710Z,94825.2
2023-01-20T04:12:06.978Z,94826.2
2023-01-20T04:13:09.507Z,94830.9
2023-01-20T04:14:12.139Z,94829.1
2023-01-20T04:15:16.103Z,94831.5
2023-01-20T04:16:19.325Z,94828
2023-01-20T04:17:21.873Z,94833.7
2023-01-20T04:18:24.101Z,94829.4
2023-01-20T04:19:26.637Z,94835.1
2023-01-20T04:20:28.918Z,94831.3
2023-01-20T04:21:31.451Z,94831.1
2023-01-20T04:22:33.984Z,94828.2
2023-01-20T04:23:36.504Z,94834.2
2023-01-20T04:24:39.049Z,94832.8
2023-01-20T04:25:41.690Z,94836.2
2023-01-20T04:26:43.957Z,94837.6
2023-01-20T04:27:46.479Z,94836.7
2023-01-20T04:28:48.984Z,94840
2023-01-20T04:29:51.565Z,94841.9
2023-01-20T04:30:54.579Z,94842.4
2023-01-20T04:31:57.660Z,94843.1
2023-01-20T04:33:00.252Z,94842.8
2023-01-20T04:34:02.501Z,94843.9
2023-01-20T04:35:05.018Z,94843.6
2023-01-20T04:36:07.628Z,94846.4
2023-01-20T04:37:10.170Z,94844.8
2023-01-20T04:38:12.749Z,94847.3
2023-01-20T04:39:15.312Z,94851.5
2023-01-20T04:40:17.871Z,94854.4
2023-01-20T04:41:20.387Z,94849.9
2023-01-20T04:42:22.965Z,94857.3
2023-01-20T04:43:25.505Z,94853.1
2023-01-20T04:44:27.738Z,94860.2
2023-01-20T04:45:30.314Z,94857.3
2023-01-20T04:46:36.739Z,94858.4
2023-01-20T04:47:40.526Z,94856.3
2023-01-20T04:48:43.087Z,94858.2
2023-01-20T04:49:45.607Z,94856.9
2023-01-20T04:50:48.167Z,94858.6
2023-01-20T04:51:50.702Z,94860.2
2023-01-20T04:52:53.202Z,94860.8
2023-01-20T04:53:55.699Z,94862
2023-01-20T04:54:57.974Z,94861.7
2023-01-20T04:56:00.502Z,94863.9
2023-01-20T04:57:03.037Z,94866.3
2023-01-20T04:58:05.274Z,94865.9
2023-01-20T04:59:07.787Z,94867.6
2023-01-20T05:00:10.073Z,94868.3
2023-01-20T05:01:13.107Z,94870.4
2023-01-20T05:02:16.338Z,94867.5
2023-01-20T05:03:19.096Z,94869.1
2023-01-20T05:04:21.592Z,94869.7
2023-01-20T05:05:24.080Z,94872.7
2023-01-20T05:06:26.060Z,94872
2023-01-20T05:07:28.129Z,94875
2023-01-20T05:08:30.686Z,94877.2
2023-01-20T05:09:33.194Z,94880.2
2023-01-20T05:10:35.415Z,94880.9
2023-01-20T05:11:37.628Z,94886.5
2023-01-20T05:12:39.846Z,94883.2
2023-01-20T05:13:42.427Z,94889.8
2023-01-20T05:14:44.966Z,94890.8
2023-01-20T05:15:47.589Z,94888.3
2023-01-20T05:16:50.215Z,94891.9
2023-01-20T05:17:52.915Z,94888.4
2023-01-20T05:18:55.149Z,94891.4
2023-01-20T05:19:57.123Z,94893.4
2023-01-20T05:20:59.659Z,94891.8
2023-01-20T05:22:02.147Z,94895.3
2023-01-20T05:23:04.671Z,94892.8
2023-01-20T05:24:07.219Z,94896.6
2023-01-20T05:25:09.723Z,94895.5
2023-01-20T05:26:11.947Z,94891.8
2023-01-20T05:27:14.169Z,94903.3
2023-01-20T05:28:16.878Z,94905.9
2023-01-20T05:29:19.140Z,94907.5
2023-01-20T05:30:22.032Z,94910.7
2023-01-20T05:31:24.765Z,94914.7
2023-01-20T05:32:27.356Z,94906.3
2023-01-20T05:33:29.894Z,94908
2023-01-20T05:34:32.112Z,94912.9
2023-01-20T05:35:34.300Z,94913.2
2023-01-20T05:36:36.530Z,94910.9
2023-01-20T05:37:38.827Z,94912.8
2023-01-20T05:38:41.189Z,94917.8
2023-01-20T05:39:43.746Z,94914.3
2023-01-20T05:40:45.757Z,94916.4
2023-01-20T05:41:48.362Z,94916
2023-01-20T05:42:50.319Z,94921.7
2023-01-20T05:43:52.552Z,94919.4
2023-01-20T05:44:54.812Z,94920.2
2023-01-20T05:45:57.364Z,94921.1
2023-01-20T05:46:59.866Z,94919.7
2023-01-20T05:48:02.417Z,94922.5
2023-01-20T05:49:05.078Z,94924.1
2023-01-20T05:50:07.588Z,94925.5
2023-01-20T05:51:10.129Z,94925.1
2023-01-20T05:52:12.622Z,94933.3
2023-01-20T05:53:14.618Z,94928
2023-01-20T05:54:16.867Z,94930.5
2023-01-20T05:55:19.386Z,94936.3
2023-01-20T05:56:21.599Z,94936.4
2023-01-20T05:57:24.089Z,94936
2023-01-20T05:58:26.588Z,94939.9
2023-01-20T05:59:28.804Z,94939.1
2023-01-20T06:00:31.330Z,94940.1
2023-01-20T06:01:33.710Z,94942.2
2023-01-20T06:02:36.386Z,94946.7
2023-01-20T06:03:39.244Z,94943.1
2023-01-20T06:04:41.934Z,94948
2023-01-20T06:05:43.901Z,94945.1
2023-01-20T06:06:45.825Z,94945.3
2023-01-20T06:07:48.055Z,94943.6
2023-01-20T06:08:50.647Z,94949.4
2023-01-20T06:09:53.281Z,94953.7
2023-01-20T06:10:55.842Z,94947.2
2023-01-20T06:11:58.096Z,94948.1
2023-01-20T06:13:00.612Z,94948.8
2023-01-20T06:14:02.869Z,94953.6
2023-01-20T06:15:04.819Z,94951.4
2023-01-20T06:16:09.169Z,94952
2023-01-20T06:17:11.781Z,94955.7
2023-01-20T06:18:14.001Z,94949.8
2023-01-20T06:19:16.329Z,94951.2
2023-01-20T06:20:18.873Z,94950.7
2023-01-20T06:21:21.104Z,94951.9
2023-01-20T06:22:23.596Z,94952.2
2023-01-20T06:23:26.114Z,94949.9
2023-01-20T06:24:28.618Z,94951.7
2023-01-20T06:25:31.136Z,94961.7
2023-01-20T06:26:48.288Z,94960
2023-01-20T06:27:50.557Z,94958.5
2023-01-20T06:28:52.808Z,94960.8
2023-01-20T06:29:55.096Z,94961.1
2023-01-20T06:30:57.208Z,94959.5
2023-01-20T06:32:00.528Z,94964.3
2023-01-20T06:33:03.208Z,94964.6
2023-01-20T06:34:05.450Z,94964.5
2023-01-20T06:35:11.275Z,94967.2
2023-01-20T06:36:14.061Z,94966.6
2023-01-20T06:37:16.305Z,94968.7
2023-01-20T06:38:18.844Z,94966.4
2023-01-20T06:39:21.104Z,94969.3
2023-01-20T06:40:23.033Z,94972.8
2023-01-20T06:41:25.600Z,94971
2023-01-20T06:42:28.114Z,94973.6
2023-01-20T06:43:30.620Z,94974.2
2023-01-20T06:44:33.256Z,94978.1
2023-01-20T06:45:35.770Z,94976.9
2023-01-20T06:46:38.463Z,94981.1
2023-01-20T06:47:40.771Z,94981
2023-01-20T06:48:43.364Z,94982.8
2023-01-20T06:49:45.878Z,94984.4
2023-01-20T06:50:48.152Z,94986.6
2023-01-20T06:51:50.715Z,94988.7
2023-01-20T06:52:53.245Z,94988.9
2023-01-20T06:53:55.792Z,94987.4
2023-01-20T06:54:58.019Z,94987.9
2023-01-20T06:56:00.027Z,94993.7
2023-01-20T06:57:02.545Z,94992.8
2023-01-20T06:58:04.816Z,95000.2
2023-01-20T06:59:07.067Z,94994.6
2023-01-20T07:00:09.591Z,94997.8
2023-01-20T07:01:12.485Z,94998.4
2023-01-20T07:02:15.538Z,94996.5
2023-01-20T07:03:17.812Z,94997.2
2023-01-20T07:04:20.109Z,95000.9
2023-01-20T07:05:22.341Z,95002.5
2023-01-20T07:06:24.102Z,95005.5
2023-01-20T07:07:26.664Z,95006.4
2023-01-20T07:08:28.944Z,95012.4
2023-01-20T07:09:31.191Z,95009.9
2023-01-20T07:10:33.696Z,95012.7
2023-01-20T07:11:35.659Z,95013
2023-01-20T07:12:38.251Z,95015.6
2023-01-20T07:13:40.861Z,95014.8
2023-01-20T07:14:42.848Z,95014.3
2023-01-20T07:15:45.071Z,95017.2
2023-01-20T07:16:47.131Z,95019.9
2023-01-20T07:17:49.736Z,95022.2
2023-01-20T07:18:52.044Z,95022.4
2023-01-20T07:19:54.630Z,95019.1
2023-01-20T07:20:57.204Z,95022
2023-01-20T07:21:59.468Z,95024.2
2023-01-20T07:23:01.761Z,95026.8
2023-01-20T07:24:04.026Z,95028
2023-01-20T07:25:05.990Z,95028.2
2023-01-20T07:26:08.517Z,95031.6
2023-01-20T07:27:11.043Z,95035.2
2023-01-20T07:28:13.289Z,95037.3
2023-01-20T07:29:18.991Z,95040.1
2023-01-20T07:30:21.668Z,95038.6
2023-01-20T07:31:23.929Z,95043.5
2023-01-20T07:32:26.277Z,95041.2
2023-01-20T07:33:28.782Z,95041.5
2023-01-20T07:34:31.043Z,95046.4
2023-01-20T07:35:33.692Z,95046.8
2023-01-20T07:36:36.216Z,95045.7
2023-01-20T07:37:38.787Z,95043.8
2023-01-20T07:38:41.393Z,95050.3
2023-01-20T07:39:43.938Z,95048.9
2023-01-20T07:40:45.438Z,95050.1
2023-01-20T07:41:47.699Z,95049.7
2023-01-20T07:42:50.235Z,95056.9
2023-01-20T07:43:52.839Z,95059.1
2023-01-20T07:44:55.177Z,95056
2023-01-20T07:45:57.384Z,95058.2
2023-01-20T07:47:00.040Z,95059.5
2023-01-20T07:48:02.323Z,95058.6
2023-01-20T07:49:04.568Z,95062
2023-01-20T07:50:06.811Z,95063.5
2023-01-20T07:51:09.459Z,95062.2
2023-01-20T07:52:11.715Z,95066.5
2023-01-20T07:53:14.003Z,95066.9
2023-01-20T07:54:16.253Z,95066.5
2023-01-20T07:55:18.770Z,95066.4
2023-01-20T07:56:21.459Z,95072.7
2023-01-20T07:57:24.042Z,95074.2
2023-01-20T07:58:26.559Z,95073.8
2023-01-20T07:59:29.128Z,95073.9
2023-01-20T08:00:31.705Z,95077.4
2023-01-20T08:01:34.783Z,95077.5
2023-01-20T08:02:37.227Z,95080.7
2023-01-20T08:03:39.507Z,95078.7
2023-01-20T08:04:41.788Z,95076.2
2023-01-20T08:05:44.361Z,95080.7
2023-01-20T08:06:46.823Z,95079.4
2023-01-20T08:07:49.075Z,95077.8
2023-01-20T08:08:51.654Z,95081.8
2023-01-20T08:09:53.934Z,95080.1
2023-01-20T08:10:56.283Z,95077.9
2023-01-20T08:11:58.364Z,95080.7
2023-01-20T08:13:00.653Z,95085.5
2023-01-20T08:14:02.635Z,95076.6
2023-01-20T08:15:05.169Z,95081.4
2023-01-20T08:16:07.694Z,95079.8
2023-01-20T08:17:09.674Z,95080.5
2023-01-20T08:18:12.233Z,95085.5
2023-01-20T08:19:14.479Z,95088.8
2023-01-20T08:20:20.238Z,95085.5
2023-01-20T08:21:22.792Z,95090
2023-01-20T08:22:24.801Z,95095
2023-01-20T08:23:27.320Z,95096.2
2023-01-20T08:24:29.878Z,95090.4
2023-01-20T08:25:32.497Z,95095
2023-01-20T08:26:34.775Z,95096.3
2023-01-20T08:27:37.380Z,95092
2023-01-20T08:28:39.645Z,95098.4
2023-01-20T08:29:42.166Z,95098.1
2023-01-20T08:30:44.516Z,95106.6
2023-01-20T08:31:47.274Z,95100.7
2023-01-20T08:32:50.043Z,95103.8
2023-01-20T08:33:51.974Z,95105.4
2023-01-20T08:34:54.245Z,95105.4
2023-01-20T08:35:56.234Z,95105.3
2023-01-20T08:36:58.753Z,95105.6
2023-01-20T08:38:01.312Z,95108.8
2023-01-20T08:39:03.910Z,95110.9
2023-01-20T08:40:06.357Z,95111.2
2023-01-20T08:41:08.364Z,95107.8
2023-01-20T08:42:10.622Z,95115.9
2023-01-20T08:43:13.185Z,95116.1
2023-01-20T08:44:15.725Z,95120.6
2023-01-20T08:45:18.728Z,95122.2
2023-01-20T08:46:21.669Z,95122.6
2023-01-20T08:47:24.384Z,95125.3
2023-01-20T08:48:26.978Z,95127.9
2023-01-20T08:49:29.203Z,95125.3
2023-01-20T08:50:31.897Z,95131.9
2023-01-20T08:51:34.727Z,95131.3
2023-01-20T08:52:36.989Z,95130.4
2023-01-20T08:53:39.256Z,95135.6
2023-01-20T08:54:41.501Z,95134.2
2023-01-20T08:55:43.803Z,95137.7
2023-01-20T08:56:46.368Z,95142.7
2023-01-20T08:57:48.614Z,95137.1
2023-01-20T08:58:51.352Z,95142.2
2023-01-20T08:59:53.611Z,95144.7
2023-01-20T09:00:56.107Z,95144.8
2023-01-20T09:01:58.537Z,95146.8
2023-01-20T09:03:01.073Z,95145.5
2023-01-20T09:05:08.584Z,95145.5
2023-01-20T09:06:10.841Z,95150
2023-01-20T09:07:13.957Z,95148.2
2023-01-20T09:08:16.742Z,95151.2
2023-01-20T09:09:19.455Z,95147.5
2023-01-20T09:10:22.221Z,95150.3
2023-01-20T09:11:25.057Z,95151
2023-01-20T09:12:27.700Z,95148.3
2023-01-20T09:13:30.221Z,95146.9
2023-01-20T09:14:32.504Z,95156.3
2023-01-20T09:15:35.271Z,95156.6
2023-01-20T09:16:37.613Z,95158.7
2023-01-20T09:17:39.860Z,95155.2
2023-01-20T09:18:41.807Z,95161.8
2023-01-20T09:19:44.089Z,95162.5
2023-01-20T09:20:46.655Z,95162
2023-01-20T09:21:48.916Z,95162.8
2023-01-20T09:22:51.152Z,95166.2
2023-01-20T09:23:53.742Z,95164.5
2023-01-20T09:24:55.997Z,95170.4
2023-01-20T09:25:58.526Z,95168.3
2023-01-20T09:27:01.131Z,95173.6
2023-01-20T09:28:03.992Z,95166.6
2023-01-20T09:29:08.197Z,95171.3
2023-01-20T09:30:10.751Z,95173.8
2023-01-20T09:31:13.445Z,95176.9
2023-01-20T09:32:16.155Z,95177
2023-01-20T09:33:18.693Z,95180.9
2023-01-20T09:34:21.252Z,95181.7
2023-01-20T09:35:23.662Z,95181.5
2023-01-20T09:36:25.856Z,95184
2023-01-20T09:37:30.608Z,95185.7
2023-01-20T09:38:32.852Z,95189.3
2023-01-20T09:39:35.357Z,95186
2023-01-20T09:40:37.976Z,95188.8
2023-01-20T09:42:45.287Z,95189.6
2023-01-20T09:43:47.934Z,95190.4
2023-01-20T09:44:50.203Z,95190.2
2023-01-20T09:45:52.957Z,95189.4
2023-01-20T09:46:54.982Z,95188.1
2023-01-20T09:47:57.209Z,95192.2
2023-01-20T09:48:59.824Z,95191.2
2023-01-20T09:50:02.449Z,95190
2023-01-20T09:51:04.997Z,95194.8
2023-01-20T09:52:06.973Z,95192.9
2023-01-20T09:53:09.509Z,95198.6
2023-01-20T09:54:11.740Z,95199.1
2023-01-20T09:55:13.950Z,95198.8
2023-01-20T09:56:16.525Z,95201.1
2023-01-20T09:57:19.135Z,95199.4
2023-01-20T09:58:21.469Z,95198.6
2023-01-20T09:59:24.079Z,95203.3
2023-01-20T10:00:26.360Z,95202.5
2023-01-20T10:01:29.084Z,95200.5
2023-01-20T10:02:31.391Z,95197
2023-01-20T10:03:33.908Z,95200.3
2023-01-20T10:04:36.436Z,95202.2
2023-01-20T10:05:39.340Z,95202.1
2023-01-20T10:06:41.964Z,95204.2
2023-01-20T10:07:44.485Z,95205.3
2023-01-20T10:09:51.955Z,95208.3
2023-01-20T10:10:54.492Z,95207.4
2023-01-20T10:11:57.036Z,95203.1
2023-01-20T10:12:59.291Z,95204.1
2023-01-20T10:14:01.654Z,95206
2023-01-20T10:15:03.619Z,95204.6
2023-01-20T10:16:06.112Z,95204.8
2023-01-20T10:17:08.446Z,95206.3
2023-01-20T10:18:11.212Z,95200.9
2023-01-20T10:19:14.365Z,95200
2023-01-20T10:20:17.794Z,95198.7
2023-01-20T10:21:20.037Z,95206.7
2023-01-20T10:22:22.619Z,95201.5
2023-01-20T10:23:24.905Z,95205.1
2023-01-20T10:24:27.135Z,95201.5
2023-01-20T10:25:29.106Z,95202.2
2023-01-20T10:26:31.703Z,95196.8
2023-01-20T10:27:34.344Z,95202.9
2023-01-20T10:28:36.622Z,95199.1
2023-01-20T10:29:39.329Z,95203.9
2023-01-20T10:30:42.200Z,95199.3
2023-01-20T10:31:44.802Z,95198.6
2023-01-20T10:32:47.095Z,95200.2
2023-01-20T10:33:49.622Z,95201.1
2023-01-20T10:34:51.849Z,95203.5
2023-01-20T10:35:54.089Z,95199
2023-01-20T10:36:56.361Z,95197.9
2023-01-20T10:37:58.889Z,95197.4
2023-01-20T10:39:01.200Z,95202.2
2023-01-20T10:40:03.766Z,95203.8
2023-01-20T10:41:06.011Z,95203.4
2023-01-20T10:42:08.572Z,95206
2023-01-20T10:43:11.120Z,95213.5
2023-01-20T10:44:13.684Z,95209.8
2023-01-20T10:45:18.020Z,95211.7
2023-01-20T10:46:20.760Z,95209.5
2023-01-20T10:47:22.785Z,95214.9
2023-01-20T10:48:25.022Z,95207.4
2023-01-20T10:49:27.284Z,95210.4
2023-01-20T10:50:29.529Z,95212.5
2023-01-20T10:51:31.875Z,95213.3
2023-01-20T10:52:34.490Z,95212
2023-01-20T10:53:36.775Z,95215.4
2023-01-20T10:54:38.731Z,95205.4
2023-01-20T10:55:40.704Z,95206.7
2023-01-20T10:56:43.253Z,95210.1
2023-01-20T10:57:45.783Z,95203.6
2023-01-20T10:58:47.498Z,95202.4
2023-01-20T10:59:49.718Z,95205.5
2023-01-20T11:00:51.434Z,95209
2023-01-20T11:03:00.636Z,95204.2
2023-01-20T11:04:02.772Z,95206.2
2023-01-20T11:05:05.289Z,95201.8
2023-01-20T11:06:07.531Z,95210.8
2023-01-20T11:07:09.870Z,95210.5
2023-01-20T11:08:12.372Z,95210.9
2023-01-20T11:09:14.586Z,95205.7
2023-01-20T11:10:18.085Z,95206.6
2023-01-20T11:11:20.698Z,95206.2
2023-01-20T11:12:23.465Z,95209.6
2023-01-20T11:13:25.819Z,95208.2
2023-01-20T11:14:28.368Z,95206.6
2023-01-20T11:15:30.349Z,95207.6
2023-01-20T11:16:33.212Z,95211.8
2023-01-20T11:17:35.840Z,95212.2
2023-01-20T11:18:38.346Z,95211.1
2023-01-20T11:19:40.917Z,95213.7
2023-01-20T11:20:43.196Z,95214.4
2023-01-20T11:21:45.442Z,95216.4
2023-01-20T11:22:47.974Z,95213.8
2023-01-20T11:23:50.326Z,95211.1
2023-01-20T11:24:52.819Z,95211.5
2023-01-20T11:25:55.059Z,95213.8
2023-01-20T11:26:57.290Z,95209.1
2023-01-20T11:27:59.259Z,95214.3
2023-01-20T11:29:01.776Z,95213.2
2023-01-20T11:30:04.076Z,95216.7
2023-01-20T11:31:06.824Z,95211.2
2023-01-20T11:32:09.601Z,95217.4
2023-01-20T11:33:12.241Z,95219.5
2023-01-20T11:34:14.547Z,95214.4
2023-01-20T11:35:17.627Z,95210.3
2023-01-20T11:36:20.153Z,95210.3
2023-01-20T11:37:22.691Z,95210.1
2023-01-20T11:38:24.945Z,95211.4
2023-01-20T11:39:27.189Z,95214.6
2023-01-20T11:40:29.450Z,95214.1
2023-01-20T11:41:31.998Z,95214.3
2023-01-20T11:43:39.979Z,95217.6
2023-01-20T11:44:42.208Z,95216.6
2023-01-20T11:45:44.854Z,95213.5
2023-01-20T11:46:47.324Z,95214.5
2023-01-20T11:47:49.432Z,95215.9
2023-01-20T11:48:51.721Z,95211.5
2023-01-20T11:49:54.271Z,95208.2
2023-01-20T11:50:56.507Z,95209.1
2023-01-20T11:51:59.439Z,95204.9
2023-01-20T11:53:01.740Z,95209.2
2023-01-20T11:54:04.298Z,95207.5
2023-01-20T11:55:06.810Z,95210.4
2023-01-20T11:56:09.049Z,95208.4
2023-01-20T11:57:11.284Z,95210
2023-01-20T11:58:13.258Z,95207.6
2023-01-20T11:59:15.761Z,95204.3
2023-01-20T12:00:18.781Z,95208.5
2023-01-20T12:01:21.052Z,95208.5
2023-01-20T12:02:23.599Z,95214.5
2023-01-20T12:03:26.195Z,95213
2023-01-20T12:04:28.991Z,95213
2023-01-20T12:05:31.382Z,95205.4
2023-01-20T12:06:33.606Z,95210.1
2023-01-20T12:07:35.839Z,95214
2023-01-20T12:08:38.366Z,95215
2023-01-20T12:09:40.882Z,95211.7
2023-01-20T12:10:43.409Z,95206.5
2023-01-20T12:11:45.631Z,95212.6
2023-01-20T12:12:48.136Z,95211.6
2023-01-20T12:13:50.628Z,95218.9
2023-01-20T12:14:52.610Z,95217.2
2023-01-20T12:15:55.245Z,95211.1
2023-01-20T12:16:57.528Z,95219
2023-01-20T12:18:00.061Z,95214.3
2023-01-20T12:19:04.241Z,95220.3
2023-01-20T12:20:06.540Z,95216.5
2023-01-20T12:21:09.042Z,95217.5
2023-01-20T12:22:11.538Z,95218.2
2023-01-20T12:23:14.041Z,95217.5
2023-01-20T12:24:16.296Z,95215.1
2023-01-20T12:25:18.884Z,95219
2023-01-20T12:26:21.183Z,95219.3
2023-01-20T12:27:23.710Z,95219.4
2023-01-20T12:28:25.703Z,95219
2023-01-20T12:29:27.931Z,95220.4
2023-01-20T12:30:30.486Z,95221.7
2023-01-20T12:31:33.250Z,95221.2
2023-01-20T12:32:35.713Z,95221.3
2023-01-20T12:33:38.295Z,95220.4
2023-01-20T12:34:40.605Z,95230.6
2023-01-20T12:35:43.141Z,95229.4
2023-01-20T12:36:45.403Z,95230.9
2023-01-20T12:37:47.189Z,95226.6
2023-01-20T12:38:49.441Z,95227.6
2023-01-20T12:39:51.987Z,95230.8
2023-01-20T12:40:53.962Z,95229.7
2023-01-20T12:41:56.464Z,95225.1
2023-01-20T12:42:58.695Z,95229.8
2023-01-20T12:44:00.912Z,95231.5
2023-01-20T12:45:03.121Z,95232.2
2023-01-20T12:46:05.568Z,95229.5
2023-01-20T12:47:08.166Z,95232.6
2023-01-20T12:48:10.140Z,95236.8